Time,TemperatureF,DewpointF,PressureIn,WindDirection,WindDirectionDegrees,WindSpeedMPH,WindSpeedGustMPH,Humidity,HourlyPrecipIn,Conditions,Clouds,dailyrainin,SoftwareType,DateUTC
2013-07-17 00:04:00,78.4,72.1,29.77,SSE,149,0.0,0.0,81,0.00,,,0.00,Wunderground v.1.15,2013-07-17 05:04:00,
2013-07-17 00:10:00,78.2,71.9,29.78,SSE,149,0.0,0.0,81,0.00,,,0.00,Wunderground v.1.15,2013-07-17 05:10:00,
2013-07-17 00:16:00,78.1,71.8,29.78,SSE,149,0.0,0.0,81,0.00,,,0.00,Wunderground v.1.15,2013-07-17 05:16:00,
2013-07-17 00:21:00,78.0,71.7,29.78,SSE,149,0.0,0.0,81,0.00,,,0.00,Wunderground v.1.15,2013-07-17 05:21:00,
2013-07-17 00:27:00,77.8,71.5,29.78,SSE,149,0.0,0.0,81,0.00,,,0.00,Wunderground v.1.15,2013-07-17 05:27:00,
2013-07-17 00:32:00,77.9,-99.9,29.77,SSE,149,0.0,0.0,255,0.00,,,0.00,Wunderground v.1.15,2013-07-17 05:32:00,
2013-07-17 00:38:00,78.3,71.2,29.77,SSE,149,0.0,2.0,79,0.00,,,0.00,Wunderground v.1.15,2013-07-17 05:38:00,
2013-07-17 00:44:00,78.3,71.6,29.78,SSE,149,0.0,0.0,80,0.00,,,0.00,Wunderground v.1.15,2013-07-17 05:44:00,
2013-07-17 00:49:00,78.3,71.6,29.78,SSE,149,0.0,0.0,80,0.00,,,0.00,Wunderground v.1.15,2013-07-17 05:49:00,
2013-07-17 00:55:00,78.2,71.5,29.78,SSE,149,0.0,0.0,80,0.00,,,0.00,Wunderground v.1.15,2013-07-17 05:55:00,
2013-07-17 01:00:00,78.2,71.5,29.78,SSE,149,0.0,0.0,80,0.00,,,0.00,Wunderground v.1.15,2013-07-17 06:00:00,
2013-07-17 01:06:00,78.1,71.8,29.78,SSE,149,0.0,0.0,81,0.00,,,0.00,Wunderground v.1.15,2013-07-17 06:06:00,
2013-07-17 01:12:00,78.2,71.9,29.78,SSE,149,0.0,0.0,81,0.00,,,0.00,Wunderground v.1.15,2013-07-17 06:12:00,
2013-07-17 01:17:00,78.4,71.7,29.78,SSE,149,0.0,0.0,80,0.00,,,0.00,Wunderground v.1.15,2013-07-17 06:17:00,
2013-07-17 01:23:00,78.5,71.8,29.78,SSE,149,0.0,0.0,80,0.00,,,0.00,Wunderground v.1.15,2013-07-17 06:23:00,
2013-07-17 01:28:00,78.4,71.7,29.78,SSE,149,0.0,0.0,80,0.00,,,0.00,Wunderground v.1.15,2013-07-17 06:28:00,
2013-07-17 01:34:00,78.4,71.7,29.78,SSE,149,0.0,2.0,80,0.00,,,0.00,Wunderground v.1.15,2013-07-17 06:34:00,
2013-07-17 01:40:00,78.6,71.9,29.77,SSE,149,0.0,0.0,80,0.00,,,0.00,Wunderground v.1.15,2013-07-17 06:40:00,
2013-07-17 01:45:00,78.4,71.3,29.77,SSE,149,0.0,0.0,79,0.00,,,0.00,Wunderground v.1.15,2013-07-17 06:45:00,
2013-07-17 01:51:00,78.4,71.7,29.77,SSE,149,0.0,0.0,80,0.00,,,0.00,Wunderground v.1.15,2013-07-17 06:51:00,
2013-07-17 01:56:00,78.3,71.6,29.77,SSE,149,0.0,0.0,80,0.00,,,0.00,Wunderground v.1.15,2013-07-17 06:56:00,
2013-07-17 02:01:00,78.2,71.5,29.77,SSE,149,0.0,1.0,80,0.00,,,0.00,Wunderground v.1.15,2013-07-17 07:01:00,
2013-07-17 02:06:00,78.5,71.8,29.77,SSE,149,5.0,5.0,80,0.00,,,0.00,Wunderground v.1.15,2013-07-17 07:06:00,
2013-07-17 02:11:00,78.2,71.5,29.78,SSE,149,0.0,2.0,80,0.00,,,0.00,Wunderground v.1.15,2013-07-17 07:11:00,
2013-07-17 02:16:00,78.1,71.4,29.77,SSE,149,0.0,5.0,80,0.00,,,0.00,Wunderground v.1.15,2013-07-17 07:16:00,
2013-07-17 02:21:00,78.2,71.5,29.77,SSE,149,0.0,0.0,80,0.00,,,0.00,Wunderground v.1.15,2013-07-17 07:21:00,
2013-07-17 02:26:00,78.1,71.4,29.77,SSE,149,0.0,1.0,80,0.00,,,0.00,Wunderground v.1.15,2013-07-17 07:26:00,
2013-07-17 02:31:00,78.0,71.7,29.78,SSE,149,0.0,0.0,81,0.00,,,0.00,Wunderground v.1.15,2013-07-17 07:31:00,
2013-07-17 02:36:00,78.0,71.7,29.78,SSE,149,0.0,4.0,81,0.00,,,0.00,Wunderground v.1.15,2013-07-17 07:36:00,
2013-07-17 02:41:00,77.9,71.6,29.78,SSE,149,0.0,1.0,81,0.00,,,0.00,Wunderground v.1.15,2013-07-17 07:41:00,
2013-07-17 02:46:00,77.8,71.5,29.78,SSE,149,0.0,1.0,81,0.00,,,0.00,Wunderground v.1.15,2013-07-17 07:46:00,
2013-07-17 02:51:00,77.7,71.4,29.77,SSE,149,0.0,0.0,81,0.00,,,0.00,Wunderground v.1.15,2013-07-17 07:51:00,
2013-07-17 02:56:00,77.5,71.6,29.77,SSE,149,0.0,0.0,82,0.00,,,0.00,Wunderground v.1.15,2013-07-17 07:56:00,
2013-07-17 03:01:00,77.3,71.4,29.77,SSE,149,0.0,0.0,82,0.00,,,0.00,Wunderground v.1.15,2013-07-17 08:01:00,
2013-07-17 03:06:00,77.1,71.2,29.77,SSE,149,0.0,0.0,82,0.00,,,0.00,Wunderground v.1.15,2013-07-17 08:06:00,
2013-07-17 03:11:00,77.0,71.4,29.77,SSE,149,0.0,0.0,83,0.00,,,0.00,Wunderground v.1.15,2013-07-17 08:11:00,
2013-07-17 03:16:00,76.9,71.3,29.77,SSE,149,0.0,1.0,83,0.00,,,0.00,Wunderground v.1.15,2013-07-17 08:16:00,
2013-07-17 03:21:00,76.9,71.3,29.77,SSE,149,2.0,4.0,83,0.00,,,0.00,Wunderground v.1.15,2013-07-17 08:21:00,
2013-07-17 03:26:00,76.8,71.2,29.77,SSE,149,0.0,4.0,83,0.00,,,0.00,Wunderground v.1.15,2013-07-17 08:26:00,
2013-07-17 03:31:00,76.7,71.1,29.77,SSE,149,0.0,1.0,83,0.00,,,0.00,Wunderground v.1.15,2013-07-17 08:31:00,
2013-07-17 03:36:00,76.6,71.0,29.78,SSE,149,0.0,1.0,83,0.00,,,0.00,Wunderground v.1.15,2013-07-17 08:36:00,
2013-07-17 03:41:00,76.6,71.4,29.78,SSE,149,0.0,0.0,84,0.00,,,0.00,Wunderground v.1.15,2013-07-17 08:41:00,
2013-07-17 03:46:00,76.6,71.4,29.77,SSE,149,0.0,4.0,84,0.00,,,0.00,Wunderground v.1.15,2013-07-17 08:46:00,
2013-07-17 03:51:00,76.6,71.4,29.77,SSE,149,0.0,1.0,84,0.00,,,0.00,Wunderground v.1.15,2013-07-17 08:51:00,
2013-07-17 03:56:00,76.7,71.5,29.77,SSE,149,0.0,4.0,84,0.00,,,0.00,Wunderground v.1.15,2013-07-17 08:56:00,
2013-07-17 04:01:00,77.1,-99.9,29.78,SSE,149,0.0,0.0,255,0.00,,,0.00,Wunderground v.1.15,2013-07-17 09:01:00,
2013-07-17 04:06:00,76.7,71.1,29.78,SSE,149,0.0,1.0,83,0.00,,,0.00,Wunderground v.1.15,2013-07-17 09:06:00,
2013-07-17 04:11:00,76.9,-99.9,29.78,SE,137,0.0,0.0,255,0.00,,,0.00,Wunderground v.1.15,2013-07-17 09:11:00,
2013-07-17 04:16:00,-17.5,-21.1,29.78,SSE,149,0.0,0.0,83,0.00,,,0.00,Wunderground v.1.15,2013-07-17 09:16:00,
2013-07-17 04:21:00,76.6,71.4,29.77,SSE,149,0.0,0.0,84,0.00,,,0.00,Wunderground v.1.15,2013-07-17 09:21:00,
2013-07-17 04:26:00,76.4,71.2,29.78,SSE,149,0.0,0.0,84,0.00,,,0.00,Wunderground v.1.15,2013-07-17 09:26:00,
2013-07-17 04:31:00,76.2,71.0,29.78,SSE,149,0.0,0.0,84,0.00,,,0.00,Wunderground v.1.15,2013-07-17 09:31:00,
2013-07-17 04:36:00,76.0,70.8,29.78,SSE,149,0.0,0.0,84,0.00,,,0.00,Wunderground v.1.15,2013-07-17 09:36:00,
2013-07-17 04:41:00,75.9,71.1,29.78,SSE,149,0.0,0.0,85,0.00,,,0.00,Wunderground v.1.15,2013-07-17 09:41:00,
2013-07-17 04:46:00,75.6,71.1,29.78,SSE,149,0.0,0.0,86,0.00,,,0.00,Wunderground v.1.15,2013-07-17 09:46:00,
2013-07-17 04:52:00,75.4,70.9,29.78,SSE,149,0.0,0.0,86,0.00,,,0.00,Wunderground v.1.15,2013-07-17 09:52:00,
2013-07-17 04:57:00,75.2,70.7,29.78,SSE,149,0.0,0.0,86,0.00,,,0.00,Wunderground v.1.15,2013-07-17 09:57:00,
2013-07-17 05:02:00,75.1,71.0,29.78,SSE,149,0.0,0.0,87,0.00,,,0.00,Wunderground v.1.15,2013-07-17 10:02:00,
2013-07-17 05:07:00,75.1,71.0,29.78,SSE,149,0.0,0.0,87,0.00,,,0.00,Wunderground v.1.15,2013-07-17 10:07:00,
2013-07-17 05:12:00,75.0,70.9,29.78,SSE,149,0.0,0.0,87,0.00,,,0.00,Wunderground v.1.15,2013-07-17 10:12:00,
2013-07-17 05:17:00,74.9,70.8,29.78,SSE,149,0.0,0.0,87,0.00,,,0.00,Wunderground v.1.15,2013-07-17 10:17:00,
2013-07-17 05:22:00,74.7,70.6,29.78,SSE,149,0.0,1.0,87,0.00,,,0.00,Wunderground v.1.15,2013-07-17 10:22:00,
2013-07-17 05:27:00,74.5,70.7,29.78,SSE,149,0.0,4.0,88,0.00,,,0.00,Wunderground v.1.15,2013-07-17 10:27:00,
2013-07-17 05:32:00,74.5,70.7,29.78,SSE,149,0.0,0.0,88,0.00,,,0.00,Wunderground v.1.15,2013-07-17 10:32:00,
2013-07-17 05:37:00,74.4,70.6,29.78,SSE,149,0.0,0.0,88,0.00,,,0.00,Wunderground v.1.15,2013-07-17 10:37:00,
2013-07-17 05:42:00,74.3,70.5,29.78,SSE,149,0.0,2.0,88,0.00,,,0.00,Wunderground v.1.15,2013-07-17 10:42:00,
2013-07-17 05:47:00,74.2,70.7,29.78,SSE,149,0.0,2.0,89,0.00,,,0.00,Wunderground v.1.15,2013-07-17 10:47:00,
2013-07-17 05:52:00,74.2,70.7,29.79,SSE,149,0.0,0.0,89,0.00,,,0.00,Wunderground v.1.15,2013-07-17 10:52:00,
2013-07-17 05:57:00,74.2,70.7,29.79,SSE,149,0.0,0.0,89,0.00,,,0.00,Wunderground v.1.15,2013-07-17 10:57:00,
2013-07-17 06:02:00,74.3,70.8,29.79,SE,136,0.0,4.0,89,0.00,,,0.00,Wunderground v.1.15,2013-07-17 11:02:00,
2013-07-17 06:07:00,74.4,70.9,29.79,SSE,149,0.0,4.0,89,0.00,,,0.00,Wunderground v.1.15,2013-07-17 11:07:00,
2013-07-17 06:12:00,74.4,70.9,29.79,SSE,149,0.0,0.0,89,0.00,,,0.00,Wunderground v.1.15,2013-07-17 11:12:00,
2013-07-17 06:17:00,74.4,70.9,29.79,SSE,149,0.0,2.0,89,0.00,,,0.00,Wunderground v.1.15,2013-07-17 11:17:00,
2013-07-17 06:23:00,-999.9,-99.9,29.79,SSE,149,0.0,0.0,88,0.00,,,0.00,Wunderground v.1.15,2013-07-17 11:23:00,
2013-07-17 06:28:00,74.7,71.2,29.80,SSE,149,0.0,1.0,89,0.00,,,0.00,Wunderground v.1.15,2013-07-17 11:28:00,
2013-07-17 06:33:00,74.9,71.1,29.80,SSE,149,0.0,0.0,88,0.00,,,0.00,Wunderground v.1.15,2013-07-17 11:33:00,
2013-07-17 06:38:00,75.1,71.0,29.80,SSE,149,0.0,2.0,87,0.00,,,0.00,Wunderground v.1.15,2013-07-17 11:38:00,
2013-07-17 06:43:00,75.3,71.2,29.80,SSE,149,0.0,4.0,87,0.00,,,0.00,Wunderground v.1.15,2013-07-17 11:43:00,
2013-07-17 06:48:00,75.8,71.7,29.80,SSE,149,0.0,4.0,87,0.00,,,0.00,Wunderground v.1.15,2013-07-17 11:48:00,
2013-07-17 06:53:00,75.8,71.7,29.80,SSE,149,0.0,0.0,87,0.00,,,0.00,Wunderground v.1.15,2013-07-17 11:53:00,
2013-07-17 06:58:00,76.0,71.8,29.80,SSE,149,0.0,0.0,87,0.00,,,0.00,Wunderground v.1.15,2013-07-17 11:58:00,
2013-07-17 07:03:00,76.1,71.6,29.80,SSE,149,0.0,0.0,86,0.00,,,0.00,Wunderground v.1.15,2013-07-17 12:03:00,
2013-07-17 07:08:00,76.3,71.8,29.80,SSE,149,0.0,5.0,86,0.00,,,0.00,Wunderground v.1.15,2013-07-17 12:08:00,
2013-07-17 07:13:00,76.6,72.1,29.80,SSE,149,0.0,0.0,86,0.00,,,0.00,Wunderground v.1.15,2013-07-17 12:13:00,
2013-07-17 07:18:00,76.9,72.0,29.81,SSE,149,0.0,0.0,85,0.00,,,0.00,Wunderground v.1.15,2013-07-17 12:18:00,
2013-07-17 07:23:00,77.3,72.4,29.81,SSE,149,0.0,2.0,85,0.00,,,0.00,Wunderground v.1.15,2013-07-17 12:23:00,
2013-07-17 07:28:00,77.6,72.4,29.81,SSE,149,0.0,2.0,84,0.00,,,0.00,Wunderground v.1.15,2013-07-17 12:28:00,
2013-07-17 07:33:00,78.0,72.4,29.81,SSE,149,0.0,0.0,83,0.00,,,0.00,Wunderground v.1.15,2013-07-17 12:33:00,
2013-07-17 07:38:00,78.4,72.8,29.81,SSE,149,1.0,1.0,83,0.00,,,0.00,Wunderground v.1.15,2013-07-17 12:38:00,
2013-07-17 07:43:00,78.7,72.7,29.81,SSE,149,0.0,4.0,82,0.00,,,0.00,Wunderground v.1.15,2013-07-17 12:43:00,
2013-07-17 07:48:00,79.0,72.7,29.81,SSE,149,0.0,4.0,81,0.00,,,0.00,Wunderground v.1.15,2013-07-17 12:48:00,
2013-07-17 07:53:00,79.2,72.9,29.81,SSE,149,0.0,4.0,81,0.00,,,0.00,Wunderground v.1.15,2013-07-17 12:53:00,
2013-07-17 07:58:00,79.4,73.1,29.81,SSE,149,1.0,4.0,81,0.00,,,0.00,Wunderground v.1.15,2013-07-17 12:58:00,
2013-07-17 08:03:00,79.7,-99.9,29.81,SSE,149,0.0,4.0,255,0.00,,,0.00,Wunderground v.1.15,2013-07-17 13:03:00,
2013-07-17 08:08:00,79.9,73.2,29.82,SSE,149,0.0,4.0,80,0.00,,,0.00,Wunderground v.1.15,2013-07-17 13:08:00,
2013-07-17 08:13:00,80.2,73.1,29.82,SSE,149,0.0,1.0,79,0.00,,,0.00,Wunderground v.1.15,2013-07-17 13:13:00,
2013-07-17 08:18:00,80.5,73.4,29.82,SSE,149,0.0,2.0,79,0.00,,,0.00,Wunderground v.1.15,2013-07-17 13:18:00,
2013-07-17 08:24:00,80.9,73.0,29.82,SSE,149,0.0,2.0,77,0.00,,,0.00,Wunderground v.1.15,2013-07-17 13:24:00,
2013-07-17 08:29:00,81.2,73.3,29.82,SSE,149,0.0,2.0,77,0.00,,,0.00,Wunderground v.1.15,2013-07-17 13:29:00,
2013-07-17 08:34:00,81.6,73.3,29.82,SSE,149,0.0,0.0,76,0.00,,,0.00,Wunderground v.1.15,2013-07-17 13:34:00,
2013-07-17 08:39:00,82.0,73.7,29.82,SSE,149,0.0,4.0,76,0.00,,,0.00,Wunderground v.1.15,2013-07-17 13:39:00,
2013-07-17 08:44:00,82.4,73.3,29.82,SSE,149,4.0,5.0,74,0.00,,,0.00,Wunderground v.1.15,2013-07-17 13:44:00,
2013-07-17 08:49:00,83.3,74.1,29.82,SSE,149,0.0,5.0,74,0.00,,,0.00,Wunderground v.1.15,2013-07-17 13:49:00,
2013-07-17 08:54:00,83.3,73.7,29.82,SSE,149,0.0,1.0,73,0.00,,,0.00,Wunderground v.1.15,2013-07-17 13:54:00,
2013-07-17 08:59:00,83.5,73.5,29.82,SSE,149,0.0,5.0,72,0.00,,,0.00,Wunderground v.1.15,2013-07-17 13:59:00,
2013-07-17 09:04:00,83.7,73.7,29.82,SSE,149,0.0,4.0,72,0.00,,,0.00,Wunderground v.1.15,2013-07-17 14:04:00,
2013-07-17 09:09:00,83.9,73.9,29.82,SSE,149,0.0,4.0,72,0.00,,,0.00,Wunderground v.1.15,2013-07-17 14:09:00,
2013-07-17 09:14:00,84.3,74.3,29.82,SSE,149,0.0,1.0,72,0.00,,,0.00,Wunderground v.1.15,2013-07-17 14:14:00,
2013-07-17 09:19:00,84.8,73.5,29.82,SSE,149,1.0,7.0,69,0.00,,,0.00,Wunderground v.1.15,2013-07-17 14:19:00,
2013-07-17 09:24:00,85.2,73.4,29.82,SSE,149,0.0,4.0,68,0.00,,,0.00,Wunderground v.1.15,2013-07-17 14:24:00,
2013-07-17 09:29:00,85.7,73.9,29.82,SSE,149,0.0,4.0,68,0.00,,,0.00,Wunderground v.1.15,2013-07-17 14:29:00,
2013-07-17 09:34:00,86.1,73.9,29.82,SSE,149,0.0,0.0,67,0.00,,,0.00,Wunderground v.1.15,2013-07-17 14:34:00,
2013-07-17 09:39:00,86.4,73.7,29.82,SSE,149,2.0,4.0,66,0.00,,,0.00,Wunderground v.1.15,2013-07-17 14:39:00,
2013-07-17 09:44:00,86.6,74.3,29.82,SSE,149,1.0,4.0,67,0.00,,,0.00,Wunderground v.1.15,2013-07-17 14:44:00,
2013-07-17 09:49:00,87.2,74.0,29.82,SSE,149,0.0,4.0,65,0.00,,,0.00,Wunderground v.1.15,2013-07-17 14:49:00,
2013-07-17 09:54:00,87.4,74.2,29.82,SSE,149,0.0,2.0,65,0.00,,,0.00,Wunderground v.1.15,2013-07-17 14:54:00,
2013-07-17 09:59:00,87.5,74.7,29.82,SSE,149,0.0,2.0,66,0.00,,,0.00,Wunderground v.1.15,2013-07-17 14:59:00,
2013-07-17 10:04:00,87.8,74.1,29.82,SSE,149,0.0,5.0,64,0.00,,,0.00,Wunderground v.1.15,2013-07-17 15:04:00,
2013-07-17 10:09:00,87.9,74.7,29.82,SSE,149,0.0,5.0,65,0.00,,,0.00,Wunderground v.1.15,2013-07-17 15:09:00,
2013-07-17 10:14:00,88.2,74.5,29.82,SSE,149,0.0,6.0,64,0.00,,,0.00,Wunderground v.1.15,2013-07-17 15:14:00,
2013-07-17 10:19:00,88.2,73.5,29.82,SSE,149,0.0,6.0,62,0.00,,,0.00,Wunderground v.1.15,2013-07-17 15:19:00,
2013-07-17 10:25:00,88.0,73.3,29.81,SSE,149,2.0,6.0,62,0.00,,,0.00,Wunderground v.1.15,2013-07-17 15:25:00,
2013-07-17 10:29:00,88.1,74.4,29.82,SSE,149,0.0,6.0,64,0.00,,,0.00,Wunderground v.1.15,2013-07-17 15:29:00,
2013-07-17 10:34:00,88.4,74.2,29.81,SSE,149,1.0,1.0,63,0.00,,,0.00,Wunderground v.1.15,2013-07-17 15:34:00,
2013-07-17 10:39:00,88.5,74.3,29.81,SSE,149,0.0,6.0,63,0.00,,,0.00,Wunderground v.1.15,2013-07-17 15:39:00,
2013-07-17 10:45:00,89.0,74.3,29.81,SSE,149,0.0,1.0,62,0.00,,,0.00,Wunderground v.1.15,2013-07-17 15:45:00,
2013-07-17 10:50:00,88.8,74.1,29.82,SSE,149,0.0,0.0,62,0.00,,,0.00,Wunderground v.1.15,2013-07-17 15:50:00,
2013-07-17 10:55:00,89.4,74.2,29.82,SSE,149,0.0,1.0,61,0.00,,,0.00,Wunderground v.1.15,2013-07-17 15:55:00,
2013-07-17 11:00:00,89.5,74.3,29.82,SSE,149,0.0,0.0,61,0.00,,,0.00,Wunderground v.1.15,2013-07-17 16:00:00,
2013-07-17 11:05:00,89.3,74.1,29.81,SSE,149,0.0,5.0,61,0.00,,,0.00,Wunderground v.1.15,2013-07-17 16:05:00,
2013-07-17 11:10:00,89.2,73.5,29.81,SSE,149,0.0,0.0,60,0.00,,,0.00,Wunderground v.1.15,2013-07-17 16:10:00,
2013-07-17 11:15:00,89.5,73.3,29.81,SSE,149,0.0,1.0,59,0.00,,,0.00,Wunderground v.1.15,2013-07-17 16:15:00,
2013-07-17 11:20:00,89.6,-99.9,29.81,SSE,149,0.0,0.0,255,0.00,,,0.00,Wunderground v.1.15,2013-07-17 16:20:00,
2013-07-17 11:25:00,89.3,72.6,29.81,SSE,149,0.0,5.0,58,0.00,,,0.00,Wunderground v.1.15,2013-07-17 16:25:00,
2013-07-17 11:30:00,89.5,72.3,29.81,SSE,149,0.0,0.0,57,0.00,,,0.00,Wunderground v.1.15,2013-07-17 16:30:00,
2013-07-17 11:35:00,89.8,72.5,29.81,SSE,149,0.0,1.0,57,0.00,,,0.00,Wunderground v.1.15,2013-07-17 16:35:00,
2013-07-17 11:40:00,90.3,73.5,29.81,SSE,149,0.0,0.0,58,0.00,,,0.00,Wunderground v.1.15,2013-07-17 16:40:00,
2013-07-17 11:45:00,90.7,74.4,29.81,SSE,149,0.0,4.0,59,0.00,,,0.00,Wunderground v.1.15,2013-07-17 16:45:00,
2013-07-17 11:50:00,90.7,73.4,29.81,SSE,149,0.0,0.0,57,0.00,,,0.00,Wunderground v.1.15,2013-07-17 16:50:00,
2013-07-17 11:55:00,90.9,73.6,29.81,SSE,149,0.0,1.0,57,0.00,,,0.00,Wunderground v.1.15,2013-07-17 16:55:00,
2013-07-17 12:00:00,90.7,73.4,29.80,SSE,149,0.0,0.0,57,0.00,,,0.00,Wunderground v.1.15,2013-07-17 17:00:00,
2013-07-17 12:05:00,90.6,72.8,29.80,SSE,149,0.0,1.0,56,0.00,,,0.00,Wunderground v.1.15,2013-07-17 17:05:00,
2013-07-17 12:10:00,90.8,73.5,29.80,SSE,149,0.0,0.0,57,0.00,,,0.00,Wunderground v.1.15,2013-07-17 17:10:00,
2013-07-17 12:15:00,91.0,73.1,29.80,SSE,149,0.0,5.0,56,0.00,,,0.00,Wunderground v.1.15,2013-07-17 17:15:00,
2013-07-17 12:20:00,91.1,73.2,29.80,SSE,149,0.0,0.0,56,0.00,,,0.00,Wunderground v.1.15,2013-07-17 17:20:00,
2013-07-17 12:25:00,90.5,72.7,29.80,SSE,149,0.0,0.0,56,0.00,,,0.00,Wunderground v.1.15,2013-07-17 17:25:00,
2013-07-17 12:30:00,89.9,73.7,29.80,SSE,149,0.0,0.0,59,0.00,,,0.00,Wunderground v.1.15,2013-07-17 17:30:00,
2013-07-17 12:35:00,89.6,74.4,29.80,SSE,149,0.0,0.0,61,0.00,,,0.00,Wunderground v.1.15,2013-07-17 17:35:00,
2013-07-17 12:40:00,89.6,76.7,29.80,SSE,149,0.0,0.0,66,0.00,,,0.00,Wunderground v.1.15,2013-07-17 17:40:00,
2013-07-17 12:45:00,89.3,77.3,29.80,SSE,149,0.0,1.0,68,0.00,,,0.00,Wunderground v.1.15,2013-07-17 17:45:00,
2013-07-17 12:50:00,89.8,76.9,29.80,SSE,149,0.0,0.0,66,0.00,,,0.00,Wunderground v.1.15,2013-07-17 17:50:00,
2013-07-17 12:55:00,90.7,75.4,29.79,SSE,149,0.0,1.0,61,0.00,,,0.00,Wunderground v.1.15,2013-07-17 17:55:00,
2013-07-17 13:00:00,90.6,73.8,29.79,SSE,149,0.0,0.0,58,0.00,,,0.00,Wunderground v.1.15,2013-07-17 18:00:00,
2013-07-17 13:05:00,90.8,72.9,29.79,SSE,149,0.0,4.0,56,0.00,,,0.00,Wunderground v.1.15,2013-07-17 18:05:00,
2013-07-17 13:10:00,91.1,74.8,29.79,SSE,149,0.0,0.0,59,0.00,,,0.00,Wunderground v.1.15,2013-07-17 18:10:00,
2013-07-17 13:15:00,91.5,74.6,29.78,SSE,149,0.0,0.0,58,0.00,,,0.00,Wunderground v.1.15,2013-07-17 18:15:00,
2013-07-17 13:20:00,91.9,75.0,29.78,SSE,149,2.0,4.0,58,0.00,,,0.00,Wunderground v.1.15,2013-07-17 18:20:00,
2013-07-17 13:25:00,92.0,75.6,29.78,SSE,149,0.0,5.0,59,0.00,,,0.00,Wunderground v.1.15,2013-07-17 18:25:00,
2013-07-17 13:30:00,91.9,73.4,29.78,SSE,149,0.0,1.0,55,0.00,,,0.00,Wunderground v.1.15,2013-07-17 18:30:00,
2013-07-17 13:35:00,92.0,75.1,29.78,SSE,149,0.0,1.0,58,0.00,,,0.00,Wunderground v.1.15,2013-07-17 18:35:00,
2013-07-17 13:40:00,92.4,73.3,29.78,SSE,149,5.0,5.0,54,0.00,,,0.00,Wunderground v.1.15,2013-07-17 18:40:00,
2013-07-17 13:45:00,92.3,75.4,29.78,SSE,149,0.0,5.0,58,0.00,,,0.00,Wunderground v.1.15,2013-07-17 18:45:00,
2013-07-17 13:50:00,92.2,73.7,29.78,SSE,149,0.0,0.0,55,0.00,,,0.00,Wunderground v.1.15,2013-07-17 18:50:00,
2013-07-17 13:55:00,92.4,73.3,29.78,SSE,149,0.0,7.0,54,0.00,,,0.00,Wunderground v.1.15,2013-07-17 18:55:00,
2013-07-17 14:01:00,92.0,74.6,29.78,SSE,149,0.0,1.0,57,0.00,,,0.00,Wunderground v.1.15,2013-07-17 19:01:00,
2013-07-17 14:06:00,91.9,74.0,29.78,SSE,149,0.0,4.0,56,0.00,,,0.00,Wunderground v.1.15,2013-07-17 19:06:00,
2013-07-17 14:10:00,92.1,74.1,29.77,SSE,149,0.0,1.0,56,0.00,,,0.00,Wunderground v.1.15,2013-07-17 19:10:00,
2013-07-17 14:15:00,92.4,73.9,29.77,SSE,149,0.0,1.0,55,0.00,,,0.00,Wunderground v.1.15,2013-07-17 19:15:00,
2013-07-17 14:20:00,92.5,74.0,29.77,SSE,149,0.0,0.0,55,0.00,,,0.00,Wunderground v.1.15,2013-07-17 19:20:00,
2013-07-17 14:25:00,92.6,72.4,29.77,SSE,149,0.0,1.0,52,0.00,,,0.00,Wunderground v.1.15,2013-07-17 19:25:00,
2013-07-17 14:31:00,92.8,74.3,29.77,SSE,149,0.0,1.0,55,0.00,,,0.00,Wunderground v.1.15,2013-07-17 19:31:00,
2013-07-17 14:36:00,-999.9,-99.9,29.76,SSE,149,0.0,6.0,57,0.00,,,0.00,Wunderground v.1.15,2013-07-17 19:36:00,
2013-07-17 14:41:00,93.3,74.7,29.76,SSE,149,0.0,0.0,55,0.00,,,0.00,Wunderground v.1.15,2013-07-17 19:41:00,
2013-07-17 14:46:00,93.4,75.9,29.76,SSE,149,0.0,1.0,57,0.00,,,0.00,Wunderground v.1.15,2013-07-17 19:46:00,
2013-07-17 14:51:00,93.6,74.5,29.76,SSE,149,0.0,0.0,54,0.00,,,0.00,Wunderground v.1.15,2013-07-17 19:51:00,
2013-07-17 14:56:00,93.8,75.7,29.75,SSE,149,0.0,5.0,56,0.00,,,0.00,Wunderground v.1.15,2013-07-17 19:56:00,
2013-07-17 15:01:00,93.7,72.3,29.75,SSE,149,0.0,0.0,50,0.00,,,0.00,Wunderground v.1.15,2013-07-17 20:01:00,
2013-07-17 15:06:00,93.1,75.6,29.75,SSE,149,0.0,0.0,57,0.00,,,0.00,Wunderground v.1.15,2013-07-17 20:06:00,
2013-07-17 15:11:00,92.2,76.3,29.75,SSE,149,4.0,6.0,60,0.00,,,0.00,Wunderground v.1.15,2013-07-17 20:11:00,
2013-07-17 15:16:00,91.9,72.3,29.75,SSE,149,0.0,6.0,53,0.00,,,0.00,Wunderground v.1.15,2013-07-17 20:16:00,
2013-07-17 15:21:00,92.1,74.7,29.74,SSE,149,0.0,0.0,57,0.00,,,0.00,Wunderground v.1.15,2013-07-17 20:21:00,
2013-07-17 15:26:00,92.6,75.1,29.75,SSE,149,0.0,1.0,57,0.00,,,0.00,Wunderground v.1.15,2013-07-17 20:26:00,
2013-07-17 15:31:00,-999.9,-99.9,29.75,SSE,149,0.0,1.0,55,0.00,,,0.00,Wunderground v.1.15,2013-07-17 20:31:00,
2013-07-17 15:36:00,91.7,75.3,29.74,SSE,149,0.0,1.0,59,0.00,,,0.00,Wunderground v.1.15,2013-07-17 20:36:00,
2013-07-17 15:41:00,91.0,74.2,29.74,SSE,149,0.0,0.0,58,0.00,,,0.00,Wunderground v.1.15,2013-07-17 20:41:00,
2013-07-17 15:46:00,90.4,74.1,29.74,SSE,149,0.0,1.0,59,0.00,,,0.00,Wunderground v.1.15,2013-07-17 20:46:00,
2013-07-17 15:51:00,90.6,73.3,29.74,SSE,149,0.0,0.0,57,0.00,,,0.00,Wunderground v.1.15,2013-07-17 20:51:00,
2013-07-17 15:56:00,90.0,76.2,29.74,SSE,149,0.0,0.0,64,0.00,,,0.00,Wunderground v.1.15,2013-07-17 20:56:00,
2013-07-17 16:01:00,89.2,75.4,29.74,SSE,149,0.0,1.0,64,0.00,,,0.00,Wunderground v.1.15,2013-07-17 21:01:00,
2013-07-17 16:06:00,88.6,73.9,29.74,SSE,149,0.0,4.0,62,0.00,,,0.00,Wunderground v.1.15,2013-07-17 21:06:00,
2013-07-17 16:11:00,88.6,76.2,29.74,SSE,149,0.0,0.0,67,0.00,,,0.00,Wunderground v.1.15,2013-07-17 21:11:00,
2013-07-17 16:16:00,89.2,77.3,29.73,SSE,149,0.0,1.0,68,0.00,,,0.00,Wunderground v.1.15,2013-07-17 21:16:00,
2013-07-17 16:21:00,89.9,72.6,29.73,SSE,149,0.0,0.0,57,0.00,,,0.00,Wunderground v.1.15,2013-07-17 21:21:00,
2013-07-17 16:26:00,90.9,73.0,29.73,SSE,149,0.0,1.0,56,0.00,,,0.00,Wunderground v.1.15,2013-07-17 21:26:00,
2013-07-17 16:31:00,91.9,76.5,29.73,SSE,149,0.0,0.0,61,0.00,,,0.00,Wunderground v.1.15,2013-07-17 21:31:00,
2013-07-17 16:36:00,92.2,75.3,29.72,SSE,149,0.0,0.0,58,0.00,,,0.00,Wunderground v.1.15,2013-07-17 21:36:00,
2013-07-17 16:41:00,92.4,76.0,29.73,SSE,149,0.0,1.0,59,0.00,,,0.00,Wunderground v.1.15,2013-07-17 21:41:00,
2013-07-17 16:46:00,92.2,75.8,29.72,SSE,149,0.0,2.0,59,0.00,,,0.00,Wunderground v.1.15,2013-07-17 21:46:00,
2013-07-17 16:51:00,91.9,75.5,29.73,SSE,149,0.0,1.0,59,0.00,,,0.00,Wunderground v.1.15,2013-07-17 21:51:00,
2013-07-17 16:56:00,91.5,76.1,29.72,SSE,149,0.0,1.0,61,0.00,,,0.00,Wunderground v.1.15,2013-07-17 21:56:00,
2013-07-17 17:01:00,91.3,75.5,29.72,SSE,149,0.0,1.0,60,0.00,,,0.00,Wunderground v.1.15,2013-07-17 22:01:00,
2013-07-17 17:06:00,90.8,76.0,29.72,SSE,149,0.0,4.0,62,0.00,,,0.00,Wunderground v.1.15,2013-07-17 22:06:00,
2013-07-17 17:11:00,90.1,77.2,29.71,SSE,149,0.0,0.0,66,0.00,,,0.00,Wunderground v.1.15,2013-07-17 22:11:00,
2013-07-17 17:16:00,89.7,75.4,29.71,SSE,149,0.0,0.0,63,0.00,,,0.00,Wunderground v.1.15,2013-07-17 22:16:00,
2013-07-17 17:21:00,89.6,74.4,29.71,SSE,149,0.0,0.0,61,0.00,,,0.00,Wunderground v.1.15,2013-07-17 22:21:00,
2013-07-17 17:26:00,89.9,74.2,29.71,SSE,149,5.0,5.0,60,0.00,,,0.00,Wunderground v.1.15,2013-07-17 22:26:00,
2013-07-17 17:32:00,90.6,74.3,29.71,SSE,149,0.0,5.0,59,0.00,,,0.00,Wunderground v.1.15,2013-07-17 22:32:00,
2013-07-17 17:37:00,90.9,76.6,29.71,SSE,149,0.0,5.0,63,0.00,,,0.00,Wunderground v.1.15,2013-07-17 22:37:00,
2013-07-17 17:42:00,91.3,72.9,29.71,SSE,149,0.0,1.0,55,0.00,,,0.00,Wunderground v.1.15,2013-07-17 22:42:00,
2013-07-17 17:47:00,91.6,72.6,29.71,SSE,149,0.0,1.0,54,0.00,,,0.00,Wunderground v.1.15,2013-07-17 22:47:00,
2013-07-17 17:52:00,92.1,74.1,29.71,SSE,149,0.0,1.0,56,0.00,,,0.00,Wunderground v.1.15,2013-07-17 22:52:00,
2013-07-17 17:57:00,92.6,74.1,29.70,SSE,149,0.0,1.0,55,0.00,,,0.00,Wunderground v.1.15,2013-07-17 22:57:00,
2013-07-17 18:02:00,92.8,73.7,29.70,SSE,149,0.0,1.0,54,0.00,,,0.00,Wunderground v.1.15,2013-07-17 23:02:00,
2013-07-17 18:07:00,92.9,73.8,29.70,SSE,149,1.0,1.0,54,0.00,,,0.00,Wunderground v.1.15,2013-07-17 23:07:00,
2013-07-17 18:12:00,92.8,73.7,29.70,SSE,149,0.0,1.0,54,0.00,,,0.00,Wunderground v.1.15,2013-07-17 23:12:00,
2013-07-17 18:17:00,93.7,-99.9,29.70,SSE,149,0.0,1.0,255,0.00,,,0.00,Wunderground v.1.15,2013-07-17 23:17:00,
2013-07-17 18:22:00,93.1,73.4,29.70,SSE,149,0.0,7.0,53,0.00,,,0.00,Wunderground v.1.15,2013-07-17 23:22:00,
2013-07-17 18:27:00,92.8,73.7,29.70,SSE,149,0.0,7.0,54,0.00,,,0.00,Wunderground v.1.15,2013-07-17 23:27:00,
2013-07-17 18:32:00,92.6,73.5,29.70,SSE,149,0.0,1.0,54,0.00,,,0.00,Wunderground v.1.15,2013-07-17 23:32:00,
2013-07-17 18:37:00,92.6,73.5,29.70,SSE,149,0.0,2.0,54,0.00,,,0.00,Wunderground v.1.15,2013-07-17 23:37:00,
2013-07-17 18:42:00,92.2,73.2,29.70,SSE,149,0.0,6.0,54,0.00,,,0.00,Wunderground v.1.15,2013-07-17 23:42:00,
2013-07-17 18:47:00,91.8,72.2,29.70,SSE,149,0.0,6.0,53,0.00,,,0.00,Wunderground v.1.15,2013-07-17 23:47:00,
2013-07-17 18:52:00,91.5,73.6,29.70,SSE,149,0.0,0.0,56,0.00,,,0.00,Wunderground v.1.15,2013-07-17 23:52:00,
2013-07-17 18:57:00,91.4,73.5,29.70,SSE,149,0.0,0.0,56,0.00,,,0.00,Wunderground v.1.15,2013-07-17 23:57:00,
2013-07-17 19:02:00,91.5,74.1,29.69,SSE,149,0.0,4.0,57,0.00,,,0.00,Wunderground v.1.15,2013-07-18 00:02:00,
2013-07-17 19:07:00,91.6,73.7,29.69,SSE,149,0.0,4.0,56,0.00,,,0.00,Wunderground v.1.15,2013-07-18 00:07:00,
2013-07-17 19:12:00,91.4,74.0,29.70,SSE,149,0.0,0.0,57,0.00,,,0.00,Wunderground v.1.15,2013-07-18 00:12:00,
2013-07-17 19:17:00,91.3,74.4,29.69,SSE,149,0.0,0.0,58,0.00,,,0.00,Wunderground v.1.15,2013-07-18 00:17:00,
2013-07-17 19:22:00,90.9,74.1,29.69,SSE,149,0.0,0.0,58,0.00,,,0.00,Wunderground v.1.15,2013-07-18 00:22:00,
2013-07-17 19:27:00,90.5,75.2,29.69,SSE,149,0.0,0.0,61,0.00,,,0.00,Wunderground v.1.15,2013-07-18 00:27:00,
2013-07-17 19:32:00,89.8,74.1,29.70,SSE,149,0.0,0.0,60,0.00,,,0.00,Wunderground v.1.15,2013-07-18 00:32:00,
2013-07-17 19:37:00,89.4,74.7,29.70,SSE,149,0.0,0.0,62,0.00,,,0.00,Wunderground v.1.15,2013-07-18 00:37:00,
2013-07-17 19:42:00,90.2,75.9,29.70,SSE,149,0.0,0.0,63,0.00,,,0.00,Wunderground v.1.15,2013-07-18 00:42:00,
2013-07-17 19:47:00,88.7,74.5,29.70,SSE,149,0.0,0.0,63,0.00,,,0.00,Wunderground v.1.15,2013-07-18 00:47:00,
2013-07-17 19:52:00,88.3,74.6,29.69,SSE,149,0.0,0.0,64,0.00,,,0.00,Wunderground v.1.15,2013-07-18 00:52:00,
2013-07-17 19:57:00,87.9,74.2,29.70,SSE,149,0.0,0.0,64,0.00,,,0.00,Wunderground v.1.15,2013-07-18 00:57:00,
2013-07-17 20:02:00,87.6,73.0,29.70,SSE,149,0.0,0.0,62,0.00,,,0.00,Wunderground v.1.15,2013-07-18 01:02:00,
2013-07-17 20:07:00,87.3,74.1,29.69,SSE,149,0.0,0.0,65,0.00,,,0.00,Wunderground v.1.15,2013-07-18 01:07:00,
2013-07-17 20:12:00,87.0,73.3,29.69,SSE,149,0.0,0.0,64,0.00,,,0.00,Wunderground v.1.15,2013-07-18 01:12:00,
2013-07-17 20:17:00,86.5,73.8,29.69,SSE,149,0.0,0.0,66,0.00,,,0.00,Wunderground v.1.15,2013-07-18 01:17:00,
2013-07-17 20:22:00,86.3,74.9,29.69,SSE,149,0.0,0.0,69,0.00,,,0.00,Wunderground v.1.15,2013-07-18 01:22:00,
2013-07-17 20:27:00,85.9,74.5,29.69,SSE,149,0.0,0.0,69,0.00,,,0.00,Wunderground v.1.15,2013-07-18 01:27:00,
2013-07-17 20:32:00,85.7,74.8,29.69,SSE,149,0.0,0.0,70,0.00,,,0.00,Wunderground v.1.15,2013-07-18 01:32:00,
2013-07-17 20:37:00,85.5,74.6,29.69,SSE,149,0.0,0.0,70,0.00,,,0.00,Wunderground v.1.15,2013-07-18 01:37:00,
2013-07-17 20:42:00,85.1,74.2,29.69,SSE,149,0.0,0.0,70,0.00,,,0.00,Wunderground v.1.15,2013-07-18 01:42:00,
2013-07-17 20:47:00,84.8,74.3,29.69,SSE,149,0.0,0.0,71,0.00,,,0.00,Wunderground v.1.15,2013-07-18 01:47:00,
2013-07-17 20:52:00,84.7,74.3,29.69,SSE,149,0.0,0.0,71,0.00,,,0.00,Wunderground v.1.15,2013-07-18 01:52:00,
2013-07-17 20:57:00,84.4,74.0,29.69,SSE,149,0.0,0.0,71,0.00,,,0.00,Wunderground v.1.15,2013-07-18 01:57:00,
2013-07-17 21:02:00,84.1,74.1,29.69,SSE,149,0.0,0.0,72,0.00,,,0.00,Wunderground v.1.15,2013-07-18 02:02:00,
2013-07-17 21:07:00,83.8,74.2,29.69,SSE,149,0.0,0.0,73,0.00,,,0.00,Wunderground v.1.15,2013-07-18 02:07:00,
2013-07-17 21:12:00,-90.0,-94.2,29.69,SSE,148,0.0,0.0,72,0.00,,,0.00,Wunderground v.1.15,2013-07-18 02:12:00,
2013-07-17 21:17:00,83.3,74.1,29.70,SSE,149,0.0,0.0,74,0.00,,,0.00,Wunderground v.1.15,2013-07-18 02:17:00,
2013-07-17 21:22:00,83.0,73.9,29.70,SSE,149,0.0,0.0,74,0.00,,,0.00,Wunderground v.1.15,2013-07-18 02:22:00,
2013-07-17 21:27:00,82.8,73.7,29.70,SSE,149,0.0,0.0,74,0.00,,,0.00,Wunderground v.1.15,2013-07-18 02:27:00,
2013-07-17 21:32:00,82.6,73.9,29.70,SSE,149,0.0,0.0,75,0.00,,,0.00,Wunderground v.1.15,2013-07-18 02:32:00,
2013-07-17 21:37:00,-90.0,-93.7,29.70,SSE,149,0.0,0.0,75,0.00,,,0.00,Wunderground v.1.15,2013-07-18 02:37:00,
2013-07-17 21:42:00,82.4,73.7,29.70,SSE,149,0.0,0.0,75,0.00,,,0.00,Wunderground v.1.15,2013-07-18 02:42:00,
2013-07-17 21:47:00,82.2,73.9,29.70,SSE,149,0.0,0.0,76,0.00,,,0.00,Wunderground v.1.15,2013-07-18 02:47:00,
2013-07-17 21:52:00,82.1,73.8,29.70,SSE,149,0.0,0.0,76,0.00,,,0.00,Wunderground v.1.15,2013-07-18 02:52:00,
2013-07-17 21:57:00,82.0,73.3,29.70,SSE,149,0.0,0.0,75,0.00,,,0.00,Wunderground v.1.15,2013-07-18 02:57:00,
2013-07-17 22:02:00,82.0,73.3,29.70,SSE,149,0.0,0.0,75,0.00,,,0.00,Wunderground v.1.15,2013-07-18 03:02:00,
2013-07-17 22:07:00,82.2,73.1,29.70,SSE,149,0.0,0.0,74,0.00,,,0.00,Wunderground v.1.15,2013-07-18 03:07:00,
2013-07-17 22:12:00,-90.0,-99.9,29.70,SSE,149,0.0,0.0,255,0.00,,,0.00,Wunderground v.1.15,2013-07-18 03:12:00,
2013-07-17 22:17:00,81.6,73.3,29.71,SSE,148,0.0,0.0,76,0.00,,,0.00,Wunderground v.1.15,2013-07-18 03:17:00,
2013-07-17 22:23:00,81.5,73.2,29.70,SSE,149,0.0,0.0,76,0.00,,,0.00,Wunderground v.1.15,2013-07-18 03:23:00,
2013-07-17 22:27:00,81.6,72.5,29.71,SSE,149,0.0,0.0,74,0.00,,,0.00,Wunderground v.1.15,2013-07-18 03:27:00,
2013-07-17 22:32:00,81.5,73.6,29.71,SSE,149,0.0,0.0,77,0.00,,,0.00,Wunderground v.1.15,2013-07-18 03:32:00,
2013-07-17 22:38:00,81.3,73.4,29.71,SSE,149,0.0,0.0,77,0.00,,,0.00,Wunderground v.1.15,2013-07-18 03:38:00,
2013-07-17 22:43:00,81.2,73.3,29.71,SSE,149,0.0,0.0,77,0.00,,,0.00,Wunderground v.1.15,2013-07-18 03:43:00,
2013-07-17 22:48:00,81.2,72.9,29.71,SSE,149,0.0,0.0,76,0.00,,,0.00,Wunderground v.1.15,2013-07-18 03:48:00,
2013-07-17 22:53:00,81.2,73.3,29.71,SSE,149,0.0,0.0,77,0.00,,,0.00,Wunderground v.1.15,2013-07-18 03:53:00,
2013-07-17 22:58:00,81.2,73.3,29.71,SSE,149,0.0,0.0,77,0.00,,,0.00,Wunderground v.1.15,2013-07-18 03:58:00,
2013-07-17 23:01:00,81.2,73.3,29.71,SSE,149,0.0,0.0,77,0.00,,,0.00,Wunderground v.1.15,2013-07-18 04:01:00,
2013-07-17 23:06:00,81.2,73.3,29.71,SSE,149,0.0,0.0,77,0.00,,,0.00,Wunderground v.1.15,2013-07-18 04:06:00,
2013-07-17 23:11:00,81.1,72.8,29.72,SSE,149,0.0,0.0,76,0.00,,,0.00,Wunderground v.1.15,2013-07-18 04:11:00,
2013-07-17 23:16:00,81.1,73.2,29.72,SSE,149,0.0,0.0,77,0.00,,,0.00,Wunderground v.1.15,2013-07-18 04:16:00,
2013-07-17 23:21:00,81.0,73.1,29.71,SSE,149,0.0,0.0,77,0.00,,,0.00,Wunderground v.1.15,2013-07-18 04:21:00,
2013-07-17 23:26:00,81.0,73.1,29.71,SSE,149,0.0,1.0,77,0.00,,,0.00,Wunderground v.1.15,2013-07-18 04:26:00,
2013-07-17 23:31:00,80.9,73.0,29.71,SSE,149,0.0,0.0,77,0.00,,,0.00,Wunderground v.1.15,2013-07-18 04:31:00,
2013-07-17 23:36:00,80.8,73.3,29.72,SSE,149,0.0,0.0,78,0.00,,,0.00,Wunderground v.1.15,2013-07-18 04:36:00,
2013-07-17 23:41:00,80.8,73.3,29.71,SSE,149,0.0,0.0,78,0.00,,,0.00,Wunderground v.1.15,2013-07-18 04:41:00,
2013-07-17 23:46:00,80.8,73.3,29.71,SSE,149,0.0,0.0,78,0.00,,,0.00,Wunderground v.1.15,2013-07-18 04:46:00,
2013-07-17 23:51:00,80.7,73.2,29.71,SSE,149,0.0,0.0,78,0.00,,,0.00,Wunderground v.1.15,2013-07-18 04:51:00,
2013-07-17 23:56:00,80.6,73.1,29.71,SSE,149,0.0,0.0,78,0.00,,,0.00,Wunderground v.1.15,2013-07-18 04:56:00,